sensor_id;sensor_type;location;lat;lon;timestamp;pressure;altitude;pressure_sealevel;temperature;humidity
55191;BME280;41070;50.360;18.742;2022-12-18T00:15:17;100126.91;;;-4.65;87.14
55191;BME280;41070;50.360;18.742;2022-12-18T00:18:20;100126.64;;;-4.69;86.99
55191;BME280;41070;50.360;18.742;2022-12-18T00:21:08;100134.84;;;-4.68;87.25
55191;BME280;41070;50.360;18.742;2022-12-18T00:23:56;100127.52;;;-4.68;87.29
55191;BME280;41070;50.360;18.742;2022-12-18T00:26:34;100130.17;;;-4.67;87.52
55191;BME280;41070;50.360;18.742;2022-12-18T00:29:12;100139.58;;;-4.69;87.03
55191;BME280;41070;50.360;18.742;2022-12-18T00:31:52;100142.88;;;-4.73;86.94
55191;BME280;41070;50.360;18.742;2022-12-18T00:34:46;100140.88;;;-4.77;87.10
55191;BME280;41070;50.360;18.742;2022-12-18T00:37:25;100144.38;;;-4.77;87.43
55191;BME280;41070;50.360;18.742;2022-12-18T00:40:02;100147.98;;;-4.77;87.16
55191;BME280;41070;50.360;18.742;2022-12-18T00:42:58;100154.38;;;-4.75;87.15
55191;BME280;41070;50.360;18.742;2022-12-18T01:23:40;100186.40;;;-4.81;86.75
55191;BME280;41070;50.360;18.742;2022-12-18T02:18:43;100253.77;;;-4.91;86.50
55191;BME280;41070;50.360;18.742;2022-12-18T02:24:44;100263.34;;;-4.92;86.99
55191;BME280;41070;50.360;18.742;2022-12-18T02:27:24;100267.03;;;-4.89;87.04
55191;BME280;41070;50.360;18.742;2022-12-18T02:33:09;100268.17;;;-4.84;87.01
55191;BME280;41070;50.360;18.742;2022-12-18T02:36:10;100268.41;;;-4.85;86.52
55191;BME280;41070;50.360;18.742;2022-12-18T02:39:43;100265.96;;;-4.83;86.79
55191;BME280;41070;50.360;18.742;2022-12-18T02:42:41;100268.29;;;-4.86;86.58
55191;BME280;41070;50.360;18.742;2022-12-18T02:45:34;100276.77;;;-4.84;86.40
55191;BME280;41070;50.360;18.742;2022-12-18T06:23:49;100475.08;;;-4.65;85.61
55191;BME280;41070;50.360;18.742;2022-12-18T06:27:42;100482.48;;;-4.67;85.52
55191;BME280;41070;50.360;18.742;2022-12-18T09:14:47;100651.73;;;-3.25;80.89
55191;BME280;41070;50.360;18.742;2022-12-18T09:17:27;100649.00;;;-3.12;81.02
55191;BME280;41070;50.360;18.742;2022-12-18T09:20:16;100640.86;;;-2.98;81.17
55191;BME280;41070;50.360;18.742;2022-12-18T09:22:51;100652.86;;;-2.87;80.82
55191;BME280;41070;50.360;18.742;2022-12-18T09:25:23;100653.73;;;-2.73;80.71
55191;BME280;41070;50.360;18.742;2022-12-18T09:27:55;100648.25;;;-2.57;80.10
55191;BME280;41070;50.360;18.742;2022-12-18T09:30:27;100648.39;;;-2.45;80.09
55191;BME280;41070;50.360;18.742;2022-12-18T09:33:03;100649.39;;;-2.32;79.77
55191;BME280;41070;50.360;18.742;2022-12-18T09:35:37;100643.13;;;-2.26;79.44
55191;BME280;41070;50.360;18.742;2022-12-18T09:38:12;100649.61;;;-2.20;79.51
55191;BME280;41070;50.360;18.742;2022-12-18T09:40:48;100653.23;;;-2.09;79.26
55191;BME280;41070;50.360;18.742;2022-12-18T09:43:42;100653.67;;;-1.98;79.33
55191;BME280;41070;50.360;18.742;2022-12-18T09:46:26;100654.14;;;-1.92;78.61
55191;BME280;41070;50.360;18.742;2022-12-18T09:49:00;100657.45;;;-1.93;78.31
55191;BME280;41070;50.360;18.742;2022-12-18T09:54:12;100658.18;;;-1.98;77.84
55191;BME280;41070;50.360;18.742;2022-12-18T09:56:46;100657.93;;;-1.94;77.77
55191;BME280;41070;50.360;18.742;2022-12-18T09:59:34;100651.13;;;-1.96;77.33
55191;BME280;41070;50.360;18.742;2022-12-18T10:02:32;100651.48;;;-2.06;77.39
55191;BME280;41070;50.360;18.742;2022-12-18T10:05:09;100654.17;;;-2.22;77.25
55191;BME280;41070;50.360;18.742;2022-12-18T10:08:10;100652.85;;;-2.27;77.59
55191;BME280;41070;50.360;18.742;2022-12-18T10:10:49;100646.87;;;-2.47;77.33
55191;BME280;41070;50.360;18.742;2022-12-18T10:13:45;100646.26;;;-2.63;77.50
55191;BME280;41070;50.360;18.742;2022-12-18T10:25:31;100637.02;;;-2.93;77.29
55191;BME280;41070;50.360;18.742;2022-12-18T10:28:37;100632.39;;;-2.99;77.61
55191;BME280;41070;50.360;18.742;2022-12-18T10:31:21;100625.90;;;-3.02;77.72
55191;BME280;41070;50.360;18.742;2022-12-18T10:33:55;100624.26;;;-3.05;77.63
55191;BME280;41070;50.360;18.742;2022-12-18T10:36:27;100622.00;;;-3.14;77.65
55191;BME280;41070;50.360;18.742;2022-12-18T10:39:19;100617.57;;;-3.21;78.00
55191;BME280;41070;50.360;18.742;2022-12-18T10:42:10;100614.54;;;-3.15;78.40
55191;BME280;41070;50.360;18.742;2022-12-18T10:45:00;100618.30;;;-3.06;78.61
55191;BME280;41070;50.360;18.742;2022-12-18T10:47:34;100618.61;;;-2.91;78.67
55191;BME280;41070;50.360;18.742;2022-12-18T10:50:19;100612.23;;;-2.84;78.15
55191;BME280;41070;50.360;18.742;2022-12-18T10:53:05;100608.55;;;-2.85;78.10
55191;BME280;41070;50.360;18.742;2022-12-18T10:55:39;100604.11;;;-2.79;78.30
55191;BME280;41070;50.360;18.742;2022-12-18T10:58:28;100599.44;;;-2.65;78.22
55191;BME280;41070;50.360;18.742;2022-12-18T11:01:03;100593.78;;;-2.58;77.59
55191;BME280;41070;50.360;18.742;2022-12-18T11:06:15;100586.73;;;-2.50;77.28
55191;BME280;41070;50.360;18.742;2022-12-18T11:11:33;100590.27;;;-2.44;76.96
55191;BME280;41070;50.360;18.742;2022-12-18T11:14:13;100586.91;;;-2.45;76.96
55191;BME280;41070;50.360;18.742;2022-12-18T11:16:50;100582.84;;;-2.46;76.77
55191;BME280;41070;50.360;18.742;2022-12-18T11:19:33;100588.73;;;-2.45;76.49
55191;BME280;41070;50.360;18.742;2022-12-18T11:22:29;100592.52;;;-2.44;76.67
55191;BME280;41070;50.360;18.742;2022-12-18T11:25:06;100592.45;;;-2.46;76.32
55191;BME280;41070;50.360;18.742;2022-12-18T11:28:36;100596.40;;;-2.47;76.43
55191;BME280;41070;50.360;18.742;2022-12-18T11:30:46;100599.86;;;-2.45;76.33
55191;BME280;41070;50.360;18.742;2022-12-18T18:28:56;100695.02;;;-7.50;80.06
55191;BME280;41070;50.360;18.742;2022-12-18T18:31:29;100694.90;;;-7.48;79.78
55191;BME280;41070;50.360;18.742;2022-12-18T18:34:01;100694.98;;;-7.52;79.67
55191;BME280;41070;50.360;18.742;2022-12-18T18:36:32;100698.25;;;-7.57;79.81
55191;BME280;41070;50.360;18.742;2022-12-18T18:39:04;100698.85;;;-7.61;80.04
55191;BME280;41070;50.360;18.742;2022-12-18T18:41:35;100696.05;;;-7.66;79.89
55191;BME280;41070;50.360;18.742;2022-12-18T18:44:06;100699.13;;;-7.72;79.96
55191;BME280;41070;50.360;18.742;2022-12-18T18:46:52;100705.11;;;-7.76;80.35
55191;BME280;41070;50.360;18.742;2022-12-18T18:49:24;100711.87;;;-7.76;80.19
55191;BME280;41070;50.360;18.742;2022-12-18T18:51:56;100723.32;;;-7.77;80.12
55191;BME280;41070;50.360;18.742;2022-12-18T18:54:27;100727.69;;;-7.82;79.66
55191;BME280;41070;50.360;18.742;2022-12-18T18:56:59;100730.61;;;-7.90;79.40
55191;BME280;41070;50.360;18.742;2022-12-18T18:59:31;100727.56;;;-8.00;79.44
55191;BME280;41070;50.360;18.742;2022-12-18T19:02:02;100736.54;;;-8.03;79.43
55191;BME280;41070;50.360;18.742;2022-12-18T19:04:36;100740.52;;;-8.07;79.32
55191;BME280;41070;50.360;18.742;2022-12-18T19:07:09;100731.04;;;-8.16;79.32
55191;BME280;41070;50.360;18.742;2022-12-18T19:09:40;100726.08;;;-8.22;79.63
55191;BME280;41070;50.360;18.742;2022-12-18T19:12:17;100723.75;;;-8.24;79.94
55191;BME280;41070;50.360;18.742;2022-12-18T19:15:11;100721.86;;;-8.23;79.93
55191;BME280;41070;50.360;18.742;2022-12-18T19:17:44;100728.56;;;-8.27;79.88
55191;BME280;41070;50.360;18.742;2022-12-18T19:20:16;100729.41;;;-8.28;80.16
55191;BME280;41070;50.360;18.742;2022-12-18T19:22:54;100728.46;;;-8.27;80.11
55191;BME280;41070;50.360;18.742;2022-12-18T19:25:27;100735.15;;;-8.30;79.78
55191;BME280;41070;50.360;18.742;2022-12-18T19:28:01;100742.31;;;-8.31;79.97
55191;BME280;41070;50.360;18.742;2022-12-18T19:30:37;100745.01;;;-8.33;79.78
55191;BME280;41070;50.360;18.742;2022-12-18T19:33:11;100746.02;;;-8.35;80.16
55191;BME280;41070;50.360;18.742;2022-12-18T19:35:45;100747.29;;;-8.37;80.02
55191;BME280;41070;50.360;18.742;2022-12-18T19:41:07;100743.42;;;-8.35;80.58
55191;BME280;41070;50.360;18.742;2022-12-18T19:43:40;100734.56;;;-8.34;80.45
55191;BME280;41070;50.360;18.742;2022-12-18T19:46:16;100727.29;;;-8.36;80.25
55191;BME280;41070;50.360;18.742;2022-12-18T19:48:49;100720.34;;;-8.37;80.11
55191;BME280;41070;50.360;18.742;2022-12-18T19:51:23;100719.02;;;-8.38;80.29
55191;BME280;41070;50.360;18.742;2022-12-18T19:53:59;100725.11;;;-8.37;80.22
55191;BME280;41070;50.360;18.742;2022-12-18T19:56:45;100725.52;;;-8.36;80.21
55191;BME280;41070;50.360;18.742;2022-12-18T19:59:19;100724.91;;;-8.35;79.95
55191;BME280;41070;50.360;18.742;2022-12-18T20:01:51;100723.48;;;-8.38;79.77
55191;BME280;41070;50.360;18.742;2022-12-18T20:04:51;100720.23;;;-8.35;80.03
55191;BME280;41070;50.360;18.742;2022-12-18T20:07:26;100721.25;;;-8.33;79.74
55191;BME280;41070;50.360;18.742;2022-12-18T20:10:05;100719.14;;;-8.38;79.50
55191;BME280;41070;50.360;18.742;2022-12-18T20:12:38;100716.36;;;-8.45;79.49
55191;BME280;41070;50.360;18.742;2022-12-18T20:15:16;100714.02;;;-8.50;79.61
55191;BME280;41070;50.360;18.742;2022-12-18T20:20:38;100722.03;;;-8.58;79.15
55191;BME280;41070;50.360;18.742;2022-12-18T20:23:18;100716.48;;;-8.63;79.42
55191;BME280;41070;50.360;18.742;2022-12-18T20:26:09;100710.65;;;-8.65;79.56
55191;BME280;41070;50.360;18.742;2022-12-18T20:28:52;100710.47;;;-8.67;79.24
55191;BME280;41070;50.360;18.742;2022-12-18T20:31:26;100706.64;;;-8.70;79.42
55191;BME280;41070;50.360;18.742;2022-12-18T20:33:57;100700.60;;;-8.73;79.45
55191;BME280;41070;50.360;18.742;2022-12-18T20:36:28;100699.00;;;-8.74;79.46
55191;BME280;41070;50.360;18.742;2022-12-18T20:38:59;100701.02;;;-8.72;79.99
55191;BME280;41070;50.360;18.742;2022-12-18T20:41:33;100702.23;;;-8.65;80.35
55191;BME280;41070;50.360;18.742;2022-12-18T20:44:08;100699.95;;;-8.60;80.20
55191;BME280;41070;50.360;18.742;2022-12-18T20:46:41;100699.57;;;-8.56;80.24
55191;BME280;41070;50.360;18.742;2022-12-18T20:49:15;100701.25;;;-8.55;80.24
55191;BME280;41070;50.360;18.742;2022-12-18T20:51:49;100701.02;;;-8.51;80.42
55191;BME280;41070;50.360;18.742;2022-12-18T20:54:22;100705.09;;;-8.45;80.29
55191;BME280;41070;50.360;18.742;2022-12-18T20:56:55;100700.13;;;-8.44;80.11
55191;BME280;41070;50.360;18.742;2022-12-18T20:59:27;100691.32;;;-8.45;80.12
55191;BME280;41070;50.360;18.742;2022-12-18T21:01:59;100689.52;;;-8.45;79.71
55191;BME280;41070;50.360;18.742;2022-12-18T21:04:30;100687.91;;;-8.47;79.69
55191;BME280;41070;50.360;18.742;2022-12-18T21:07:01;100691.44;;;-8.48;79.85
55191;BME280;41070;50.360;18.742;2022-12-18T21:09:33;100684.17;;;-8.47;79.96
55191;BME280;41070;50.360;18.742;2022-12-18T21:12:09;100689.16;;;-8.48;79.67
55191;BME280;41070;50.360;18.742;2022-12-18T21:15:00;100695.73;;;-8.51;79.56
55191;BME280;41070;50.360;18.742;2022-12-18T21:17:31;100695.34;;;-8.51;79.46
55191;BME280;41070;50.360;18.742;2022-12-18T21:20:02;100691.65;;;-8.50;79.45
55191;BME280;41070;50.360;18.742;2022-12-18T21:22:33;100685.81;;;-8.52;79.36
55191;BME280;41070;50.360;18.742;2022-12-18T21:25:18;100686.20;;;-8.56;79.67
55191;BME280;41070;50.360;18.742;2022-12-18T21:27:49;100691.02;;;-8.64;79.08
55191;BME280;41070;50.360;18.742;2022-12-18T21:30:20;100692.48;;;-8.69;79.19
55191;BME280;41070;50.360;18.742;2022-12-18T21:32:52;100688.38;;;-8.71;79.44
55191;BME280;41070;50.360;18.742;2022-12-18T21:35:48;100683.00;;;-8.78;79.23
55191;BME280;41070;50.360;18.742;2022-12-18T21:38:19;100687.70;;;-8.80;79.50
55191;BME280;41070;50.360;18.742;2022-12-18T21:40:52;100685.28;;;-8.83;79.35
55191;BME280;41070;50.360;18.742;2022-12-18T21:43:23;100688.17;;;-8.84;79.50
55191;BME280;41070;50.360;18.742;2022-12-18T21:46:11;100691.20;;;-8.82;79.50
55191;BME280;41070;50.360;18.742;2022-12-18T21:48:42;100690.20;;;-8.80;79.76
55191;BME280;41070;50.360;18.742;2022-12-18T21:51:13;100689.73;;;-8.81;79.56
55191;BME280;41070;50.360;18.742;2022-12-18T21:53:45;100689.08;;;-8.83;79.30
55191;BME280;41070;50.360;18.742;2022-12-18T21:56:16;100686.35;;;-8.85;79.43
55191;BME280;41070;50.360;18.742;2022-12-18T21:58:49;100685.17;;;-8.80;79.83
55191;BME280;41070;50.360;18.742;2022-12-18T22:01:20;100684.17;;;-8.79;79.86
55191;BME280;41070;50.360;18.742;2022-12-18T22:03:52;100687.31;;;-8.76;80.07
55191;BME280;41070;50.360;18.742;2022-12-18T22:06:24;100687.57;;;-8.74;80.31
55191;BME280;41070;50.360;18.742;2022-12-18T22:08:55;100680.64;;;-8.69;80.62
55191;BME280;41070;50.360;18.742;2022-12-18T22:11:26;100682.48;;;-8.63;80.80
55191;BME280;41070;50.360;18.742;2022-12-18T22:13:57;100685.42;;;-8.57;80.66
55191;BME280;41070;50.360;18.742;2022-12-18T22:16:29;100682.66;;;-8.50;80.93
55191;BME280;41070;50.360;18.742;2022-12-18T22:19:00;100682.66;;;-8.47;80.59
55191;BME280;41070;50.360;18.742;2022-12-18T22:21:34;100687.64;;;-8.45;80.40
55191;BME280;41070;50.360;18.742;2022-12-18T22:24:12;100690.63;;;-8.47;80.19
55191;BME280;41070;50.360;18.742;2022-12-18T22:26:46;100689.49;;;-8.51;80.11
55191;BME280;41070;50.360;18.742;2022-12-18T22:29:19;100686.61;;;-8.53;80.00
55191;BME280;41070;50.360;18.742;2022-12-18T22:32:11;100686.39;;;-8.56;80.01
55191;BME280;41070;50.360;18.742;2022-12-18T22:34:45;100682.34;;;-8.57;80.05
55191;BME280;41070;50.360;18.742;2022-12-18T22:37:17;100679.05;;;-8.56;80.41
55191;BME280;41070;50.360;18.742;2022-12-18T22:39:48;100679.13;;;-8.53;80.35
55191;BME280;41070;50.360;18.742;2022-12-18T22:42:19;100678.81;;;-8.52;80.52
55191;BME280;41070;50.360;18.742;2022-12-18T22:44:51;100677.45;;;-8.47;80.71
55191;BME280;41070;50.360;18.742;2022-12-18T22:47:22;100675.30;;;-8.42;80.65
55191;BME280;41070;50.360;18.742;2022-12-18T22:49:53;100672.90;;;-8.40;80.64
55191;BME280;41070;50.360;18.742;2022-12-18T22:52:27;100673.48;;;-8.40;80.81
55191;BME280;41070;50.360;18.742;2022-12-18T22:54:58;100676.04;;;-8.39;80.67
55191;BME280;41070;50.360;18.742;2022-12-18T22:57:29;100679.81;;;-8.34;81.03
55191;BME280;41070;50.360;18.742;2022-12-18T23:00:01;100674.60;;;-8.27;81.01
55191;BME280;41070;50.360;18.742;2022-12-18T23:02:32;100673.10;;;-8.25;80.81
55191;BME280;41070;50.360;18.742;2022-12-18T23:05:04;100669.80;;;-8.18;80.81
55191;BME280;41070;50.360;18.742;2022-12-18T23:07:35;100670.73;;;-8.17;80.57
55191;BME280;41070;50.360;18.742;2022-12-18T23:10:07;100670.48;;;-8.19;80.11
55191;BME280;41070;50.360;18.742;2022-12-18T23:12:38;100673.23;;;-8.20;80.40
55191;BME280;41070;50.360;18.742;2022-12-18T23:15:10;100669.48;;;-8.20;80.46
55191;BME280;41070;50.360;18.742;2022-12-18T23:17:41;100674.20;;;-8.18;80.37
55191;BME280;41070;50.360;18.742;2022-12-18T23:20:13;100674.60;;;-8.12;80.41
55191;BME280;41070;50.360;18.742;2022-12-18T23:22:44;100675.15;;;-8.10;80.17
55191;BME280;41070;50.360;18.742;2022-12-18T23:25:15;100678.81;;;-8.09;80.27
55191;BME280;41070;50.360;18.742;2022-12-18T23:27:46;100674.70;;;-8.06;80.47
55191;BME280;41070;50.360;18.742;2022-12-18T23:30:17;100672.01;;;-8.04;80.19
55191;BME280;41070;50.360;18.742;2022-12-18T23:32:48;100672.01;;;-8.04;80.10
55191;BME280;41070;50.360;18.742;2022-12-18T23:35:19;100673.14;;;-8.01;80.12
55191;BME280;41070;50.360;18.742;2022-12-18T23:37:50;100671.45;;;-8.02;80.00
55191;BME280;41070;50.360;18.742;2022-12-18T23:40:21;100661.52;;;-8.01;79.92
55191;BME280;41070;50.360;18.742;2022-12-18T23:42:52;100661.20;;;-8.00;79.88
55191;BME280;41070;50.360;18.742;2022-12-18T23:45:23;100657.21;;;-8.02;79.92
55191;BME280;41070;50.360;18.742;2022-12-18T23:47:55;100654.23;;;-8.03;79.90
55191;BME280;41070;50.360;18.742;2022-12-18T23:50:26;100649.90;;;-8.07;79.81
55191;BME280;41070;50.360;18.742;2022-12-18T23:52:57;100644.29;;;-8.08;79.55
55191;BME280;41070;50.360;18.742;2022-12-18T23:55:29;100634.74;;;-8.10;79.89
55191;BME280;41070;50.360;18.742;2022-12-18T23:58:01;100623.35;;;-8.10;80.25
